Terminal Aerodrome Forecast
Issued by NWS Central Illinois

Home | Current Version | Previous Version | Text Only | Print | Product List | Glossary On
Versions: 1 2 3 4 5 6 7 8 9 10 11 12 13 14 15 16 17
028
FTUS43 KILX 222338
TAFSPI
TAF
KSPI 222338Z 2300/2324 09008KT P6SM SCT250
     FM230600 12008KT P6SM BKN130
     FM231500 14011KT P6SM VCSH BKN060
     FM231900 15011G17KT P6SM OVC035=

USA.gov is the U.S. government's official web portal to all federal, state and local government web resources and services.